Search METAR Data

METAR Data for ENFL:

ENFL 211350Z 22016KT 9999 -SHRA FEW030 BKN070 17/14 Q1004